Gadsden, SC

4:10 PM EDT on October 31, 2014 (GMT -0400)
RAWS CONGAREE SC US | Change Station
CLOSE
Current Station
Personal Weather Station
Location: Gadsden, SC
Elevation: 123 ft
Nearby Weather Stations
Active Advisory: Lake Wind Advisory

Elev 123 ft 33.81 °N, 80.78 °W | Updated 1 hour ago

Scattered Clouds
Scattered Clouds
70.0 °F
Feels Like 70.0 °F
N
1.0
Wind Variable Wind from West
Gusts 7.0 mph

Today
High -- | Low -- °F
--% Chance of Precip.
Yesterday
High -- | Low -- °F
Precip. -- in
7:41 AM 6:31 PM
First Quarter, 58% visible
Pressure 29.81 in
Visibility 10.0 miles
Clouds Scattered Clouds 6000 ft
Dew Point 44.0 °F
Humidity 39%
Rainfall 0.00 in
Snow Depth Not available.
UV 2 out of 12
Pollen 3.20 out of 12
Air Quality Not available.
Flu Activity Not available.
METAR KMMT 311958Z 33004KT 10SM SCT060 20/05 A2980 RMK AO2A SLP093 T02030051

More Conditions Fewer Conditions

Pressure 29.81 in
Visibility 10.0 miles
Clouds Scattered Clouds 6000 ft
Dew Point 44.0 °F
Humidity 39%
Rainfall 0.00 in
Snow Depth Not available.
UV 2 out of 12
Pollen 3.20 out of 12
Air Quality Not available.
Flu Activity Not available.
METAR KMMT 311958Z 33004KT 10SM SCT060 20/05 A2980 RMK AO2A SLP093 T02030051

More Conditions Fewer Conditions

10-Day Weather Forecast

Almanac

Astronomy

Oct. 31, 2014 Rise Set
Actual Time
Civil Twilight
Nautical Twilight
Astronomical Twilight
Moon
Length of Visible Light
Length of Day
Tomorrow will be .
, % of the Moon is Illuminated

Today's Extremes

State Highs State Lows

Community

WunderPhotos

Upload Photos

1,766,717 photos uploaded!

WunderBlogs® & News

Nearby

Air Quality

  Air Quality AQ Index Pollutant
Not available.

Snow Depth

Station Depth Elevation

Earthquake Activity

City Distance Mag. Time & Date
Minimum magnitude displayed is 2.5.

Coastal Water Temperatures

Place Temperature

Nearby Weather Stations